Coastal Inspiration — CFN4970 — position and weather

sailwx.info

Track history (hours):
 
Tides and Currents Weather Stations Pressure Air Temp Water Temp Dewpoint Dewpoint Depression Visibility Wind Speed Wind Dir Waves Ship Positions

Coastal Inspiration

Last reported at 2016-Feb-11 03:33 UTC. Time now 2016-Feb-11 04:22 UTC.
Position N 49°13' W 123°52'.

Length 160 m; draft 6 m.

Type: Passenger vessel. MMSI: 316011408.

Date/timePositionNaut miles runAvg speedWind from/ knotsBaromVisibWave heightAir tempDewpointWater temp
2016-Feb-11 03:33N 49°13' W 123°52'1212.5
2016-Feb-11 02:33N 49°09' W 123°34'1918.6
2016-Feb-11 01:33N 49°00' W 123°08'1918.8
2016-Feb-11 00:33N 49°09' W 123°34'0 0.2
2016-Feb-10 23:33N 49°09' W 123°33'0 0.2
2016-Feb-10 22:34N 49°09' W 123°34'0 0.2
2016-Feb-10 21:33N 49°09' W 123°33'0 0.2
2016-Feb-10 20:33N 49°09' W 123°34'8 7.5
2016-Feb-10 19:33N 49°04' W 123°25'8 7.5
2016-Feb-10 18:33N 49°09' W 123°34'0 0.0
2016-Feb-10 17:33N 49°09' W 123°34'8 7.6
2016-Feb-10 16:33N 49°04' W 123°25'0 0.0
2016-Feb-10 15:34N 49°04' W 123°25'0 0.0
2016-Feb-10 14:34N 49°04' W 123°25'0 0.0
2016-Feb-10 13:34N 49°04' W 123°25'0 0.0
2016-Feb-10 12:33N 49°04' W 123°25'0 0.0
2016-Feb-10 11:34N 49°04' W 123°25'0 0.0
2016-Feb-10 10:34N 49°04' W 123°25'0 0.0
2016-Feb-10 09:34N 49°04' W 123°25'0 0.0
2016-Feb-10 08:34N 49°04' W 123°25'0 0.0
2016-Feb-10 07:33N 49°04' W 123°25'0 0.0
2016-Feb-10 06:34N 49°04' W 123°25'0 0.0
2016-Feb-10 05:34N 49°04' W 123°25'0 0.0
2016-Feb-10 04:34N 49°04' W 123°25'0 0.0
2016-Feb-10 03:34N 49°04' W 123°25'0 0.0
2016-Feb-10 02:34N 49°04' W 123°25'0 0.0
2016-Feb-10 01:34N 49°04' W 123°25'0 0.0
2016-Feb-10 00:34N 49°04' W 123°25'0 0.0
2016-Feb-09 23:34N 49°04' W 123°25'0 0.0
2016-Feb-09 22:34N 49°04' W 123°25'0 0.0
2016-Feb-09 21:34N 49°04' W 123°25'0 0.0
2016-Feb-09 20:33N 49°04' W 123°25'0 0.1
2016-Feb-09 19:34N 49°04' W 123°25'0 0.1
2016-Feb-09 18:34N 49°04' W 123°25'0 0.0
2016-Feb-09 17:33N 49°04' W 123°25'0 0.0
2016-Feb-09 16:34N 49°04' W 123°25'0 0.0
2016-Feb-09 15:34N 49°04' W 123°25'0 0.0
2016-Feb-09 14:34N 49°04' W 123°25'0 0.0
2016-Feb-09 13:34N 49°04' W 123°25'0 0.0
2016-Feb-09 12:33N 49°04' W 123°25'0 0.0
2016-Feb-09 11:33N 49°04' W 123°25'0 0.0
2016-Feb-09 10:34N 49°04' W 123°25'0 0.0
2016-Feb-09 09:34N 49°04' W 123°25'0 0.0
2016-Feb-09 08:33N 49°04' W 123°25'0 0.0
2016-Feb-09 07:34N 49°04' W 123°25'0 0.0
2016-Feb-09 06:34N 49°04' W 123°25'0 0.0
2016-Feb-09 05:34N 49°04' W 123°25'1818.1
2016-Feb-09 04:33N 49°13' W 123°49'3 2.6
2016-Feb-09 03:33N 49°12' W 123°53'1818.2
2016-Feb-09 02:33N 49°06' W 123°26'1313.5
2016-Feb-09 01:34N 49°00' W 123°08'1212.4
2016-Feb-09 00:33N 49°04' W 123°26'1818.4
2016-Feb-08 23:33N 49°13' W 123°51'2 2.3
2016-Feb-08 22:33N 49°12' W 123°53'1817.7
2016-Feb-08 21:33N 49°06' W 123°27'1414.0
2016-Feb-08 20:33N 49°00' W 123°08'1211.6
2016-Feb-08 19:33N 49°03' W 123°25'1918.7
2016-Feb-08 18:33N 49°13' W 123°49'3 2.6
2016-Feb-08 17:33N 49°12' W 123°53'1818.1
2016-Feb-08 16:33N 49°06' W 123°27'1413.8
2016-Feb-08 15:33N 49°00' W 123°08'1111.1
2016-Feb-08 14:33N 49°03' W 123°24'1918.9
2016-Feb-08 13:33N 49°13' W 123°49'4 3.7
2016-Feb-08 12:22N 49°10' W 123°53'0 0.0
2016-Feb-08 11:28N 49°10' W 123°53'0 0.0
2016-Feb-08 10:31N 49°10' W 123°53'0 0.0
2016-Feb-08 09:21N 49°10' W 123°53'0 0.1
2016-Feb-08 08:33N 49°10' W 123°53'1616.1
2016-Feb-08 07:33N 49°07' W 123°29'1615.5
2016-Feb-08 06:33N 49°00' W 123°08'1111.3
2016-Feb-08 05:34N 49°03' W 123°24'1918.8
2016-Feb-08 04:33N 49°13' W 123°49'2 1.9
2016-Feb-08 03:34N 49°13' W 123°52'1918.5
2016-Feb-08 02:34N 49°07' W 123°25'1312.9
2016-Feb-08 01:33N 49°00' W 123°08'1111.5
2016-Feb-08 00:33N 49°03' W 123°25'1818.3
2016-Feb-07 23:33N 49°13' W 123°48'3 3.3
2016-Feb-07 22:34N 49°12' W 123°53'1817.8
2016-Feb-07 21:34N 49°07' W 123°27'1414.1
2016-Feb-07 20:33N 49°00' W 123°08'1211.6
2016-Feb-07 19:33N 49°03' W 123°25'1918.6
2016-Feb-07 18:33N 49°13' W 123°49'4 4.3
2016-Feb-07 17:33N 49°10' W 123°53'0 0.0
2016-Feb-07 16:33N 49°10' W 123°53'0 0.0
2016-Feb-07 15:33N 49°10' W 123°53'0 0.0
2016-Feb-07 14:34N 49°10' W 123°53'0 0.0
2016-Feb-07 13:34N 49°10' W 123°53'0 0.1
2016-Feb-07 12:34N 49°10' W 123°53'0 0.1
2016-Feb-07 11:33N 49°10' W 123°53'0 0.0
2016-Feb-07 10:34N 49°10' W 123°53'0 0.0
2016-Feb-07 09:33N 49°10' W 123°53'0 0.0
2016-Feb-07 08:31N 49°10' W 123°53'0 0.0
2016-Feb-07 07:28N 49°10' W 123°53'0 0.0
2016-Feb-07 06:30N 49°10' W 123°53'0 0.0
2016-Feb-07 05:33N 49°10' W 123°53'0 0.0
2016-Feb-07 04:33N 49°10' W 123°53'0 0.0
2016-Feb-07 03:33N 49°10' W 123°53'0 0.1
2016-Feb-07 02:31N 49°10' W 123°53'0 0.1
2016-Feb-07 01:33N 49°10' W 123°53'9 8.6
2016-Feb-07 00:33N 49°11' W 123°40'1919.3
2016-Feb-06 23:33N 49°01' W 123°16'2 2.4
2016-Feb-06 22:34N 49°00' W 123°12'1918.6
2016-Feb-06 21:33N 49°09' W 123°37'1111.0
2016-Feb-06 20:33N 49°10' W 123°53'10 9.5
2016-Feb-06 19:33N 49°11' W 123°39'1918.7
2016-Feb-06 18:33N 49°01' W 123°15'2 2.0
2016-Feb-06 17:33N 49°00' W 123°12'1918.6
2016-Feb-06 16:33N 49°09' W 123°37'1110.8
2016-Feb-06 15:33N 49°10' W 123°53'0 0.0
2016-Feb-06 14:25N 49°10' W 123°53'0 0.0
2016-Feb-06 13:31N 49°10' W 123°53'0 0.0
2016-Feb-06 11:21N 49°10' W 123°53'0 0.0
2016-Feb-06 10:29N 49°10' W 123°53'0 0.4
2016-Feb-06 09:33N 49°10' W 123°53'1817.8
2016-Feb-06 08:33N 49°06' W 123°27'1413.7
2016-Feb-06 07:34N 49°00' W 123°08'1918.5
2016-Feb-06 06:33N 49°08' W 123°34'1312.5
2016-Feb-06 05:31N 49°10' W 123°53'0 0.0
2016-Feb-06 04:33N 49°10' W 123°53'4 4.2
2016-Feb-06 03:33N 49°13' W 123°50'2019.6
2016-Feb-06 02:34N 49°05' W 123°22'1010.4
2016-Feb-06 01:33N 49°00' W 123°08'1212.1
2016-Feb-06 00:33N 49°04' W 123°25'1818.5
2016-Feb-05 23:34N 49°13' W 123°50'2 2.5
2016-Feb-05 22:34N 49°12' W 123°53'1818.1
2016-Feb-05 21:33N 49°06' W 123°26'1413.7
2016-Feb-05 20:33N 49°00' W 123°08'1111.5
2016-Feb-05 19:33N 49°03' W 123°25'1918.7
2016-Feb-05 18:33N 49°13' W 123°49'3 2.7
2016-Feb-05 17:33N 49°12' W 123°53'1818.0
2016-Feb-05 16:33N 49°07' W 123°27'1413.9
2016-Feb-05 15:33N 49°00' W 123°08'1211.6
2016-Feb-05 14:33N 49°03' W 123°25'1918.7
2016-Feb-05 13:33N 49°13' W 123°50'4 4.2
2016-Feb-05 12:33N 49°10' W 123°53'0 0.0
2016-Feb-05 11:33N 49°10' W 123°53'0 0.0
2016-Feb-05 10:32N 49°10' W 123°53'0 0.0
2016-Feb-05 09:33N 49°10' W 123°53'0 0.0
2016-Feb-05 08:34N 49°10' W 123°53'1615.7
2016-Feb-05 07:33N 49°07' W 123°30'1616.0
2016-Feb-05 06:34N 49°00' W 123°08'1212.2
2016-Feb-05 05:34N 49°04' W 123°26'1919.1
2016-Feb-05 04:33N 49°12' W 123°52'0 0.5
2016-Feb-05 03:33N 49°12' W 123°53'1918.7
2016-Feb-05 02:33N 49°06' W 123°26'1313.1
2016-Feb-05 01:33N 49°00' W 123°08'1212.2
2016-Feb-05 00:33N 49°04' W 123°26'1817.8
2016-Feb-04 23:34N 49°13' W 123°49'3 2.5
2016-Feb-04 22:33N 49°12' W 123°53'1818.1
2016-Feb-04 21:33N 49°07' W 123°26'1413.6
2016-Feb-04 20:33N 49°00' W 123°08'1211.9
2016-Feb-04 19:33N 49°04' W 123°25'1818.1
2016-Feb-04 18:33N 49°13' W 123°49'2 1.8
2016-Feb-04 17:34N 49°13' W 123°52'1818.1
2016-Feb-04 16:34N 49°06' W 123°26'1313.1
2016-Feb-04 15:33N 49°00' W 123°08'1212.3
2016-Feb-04 14:34N 49°04' W 123°26'1817.9
2016-Feb-04 13:34N 49°13' W 123°49'4 4.2
2016-Feb-04 12:33N 49°10' W 123°53'0 0.0
2016-Feb-04 11:30N 49°10' W 123°53'0 0.0
2016-Feb-04 10:29N 49°10' W 123°53'0 0.0
2016-Feb-04 09:32N 49°10' W 123°53'1 0.7
2016-Feb-04 08:33N 49°10' W 123°53'1717.1
2016-Feb-04 07:33N 49°08' W 123°27'1514.9
2016-Feb-04 06:33N 49°00' W 123°08'1211.8
2016-Feb-04 05:33N 49°04' W 123°25'1818.1
2016-Feb-04 04:34N 49°13' W 123°49'2 2.5
2016-Feb-04 03:34N 49°12' W 123°52'1818.4
2016-Feb-04 02:34N 49°06' W 123°26'1313.0
2016-Feb-04 01:33N 49°00' W 123°08'1313.1
2016-Feb-04 00:34N 49°04' W 123°27'1717.4
2016-Feb-03 23:33N 49°13' W 123°50'1 1.1
2016-Feb-03 22:34N 49°13' W 123°52'1919.0
2016-Feb-03 21:34N 49°05' W 123°25'1212.1
2016-Feb-03 20:33N 49°00' W 123°08'1212.4
2016-Feb-03 19:34N 49°04' W 123°26'1818.2
2016-Feb-03 18:33N 49°13' W 123°50'1 1.1
2016-Feb-03 17:32N 49°13' W 123°52'1818.0
2016-Feb-03 16:33N 49°06' W 123°26'1413.6
2016-Feb-03 15:34N 49°00' W 123°08'1312.7
2016-Feb-03 14:33N 49°04' W 123°26'1818.1
2016-Feb-03 13:33N 49°13' W 123°51'3 3.4
2016-Feb-03 12:33N 49°10' W 123°53'0 0.0
2016-Feb-03 11:33N 49°10' W 123°53'0 0.0
2016-Feb-03 10:33N 49°10' W 123°53'0 0.0
2016-Feb-03 09:33N 49°10' W 123°53'0 0.4
2016-Feb-03 08:33N 49°10' W 123°53'1716.4
2016-Feb-03 07:33N 49°07' W 123°28'1515.2
2016-Feb-03 06:34N 49°00' W 123°08'1211.7
2016-Feb-03 05:33N 49°04' W 123°25'1818.1
2016-Feb-03 04:33N 49°13' W 123°49'3 2.5
2016-Feb-03 03:33N 49°12' W 123°53'1919.4
2016-Feb-03 02:33N 49°06' W 123°25'1212.3
2016-Feb-03 01:33N 49°00' W 123°08'1717.3
2016-Feb-03 00:33N 49°07' W 123°32'1413.5
2016-Feb-02 23:30N 49°10' W 123°53'8 8.0
2016-Feb-02 22:33N 49°12' W 123°42'2121.2
2016-Feb-02 21:33N 49°01' W 123°14'4 4.2
2016-Feb-02 20:33N 49°00' W 123°08'1211.9
2016-Feb-02 19:33N 49°04' W 123°25'1818.4
2016-Feb-02 18:33N 49°13' W 123°50'2 1.6
2016-Feb-02 17:34N 49°12' W 123°52'1818.4
2016-Feb-02 16:34N 49°06' W 123°25'1312.9
2016-Feb-02 15:34N 49°00' W 123°08'1212.4
2016-Feb-02 14:33N 49°04' W 123°26'1818.0
2016-Feb-02 13:33N 49°13' W 123°50'4 3.2
2016-Feb-02 12:19N 49°10' W 123°53'0 0.0
2016-Feb-02 10:24N 49°10' W 123°53'0 0.0
2016-Feb-02 09:12N 49°10' W 123°53'0 0.7
2016-Feb-02 08:33N 49°10' W 123°53'1716.5
2016-Feb-02 07:33N 49°07' W 123°28'1515.2
2016-Feb-02 06:33N 49°00' W 123°08'1212.0
2016-Feb-02 05:33N 49°04' W 123°25'1818.1
2016-Feb-02 04:34N 49°13' W 123°49'2 2.3
2016-Feb-02 03:33N 49°13' W 123°52'1817.8
2016-Feb-02 02:33N 49°06' W 123°27'1413.8
2016-Feb-02 01:33N 49°00' W 123°08'1312.7
2016-Feb-02 00:33N 49°04' W 123°26'1717.4
2016-Feb-01 23:33N 49°13' W 123°50'2 2.2
2016-Feb-01 22:33N 49°12' W 123°53'1818.1
2016-Feb-01 21:33N 49°06' W 123°27'1413.6
2016-Feb-01 20:33N 49°00' W 123°08'1211.8
2016-Feb-01 19:33N 49°04' W 123°25'1818.3
2016-Feb-01 18:34N 49°13' W 123°49'2 2.2
2016-Feb-01 17:33N 49°12' W 123°52'1817.8
2016-Feb-01 16:33N 49°07' W 123°26'1413.6
2016-Feb-01 15:33N 49°00' W 123°08'1212.0
2016-Feb-01 14:33N 49°04' W 123°25'1818.2
2016-Feb-01 13:33N 49°13' W 123°49'4 4.1
2016-Feb-01 12:31N 49°10' W 123°53'0 0.0
2016-Feb-01 11:31N 49°10' W 123°53'0 0.0
2016-Feb-01 10:33N 49°10' W 123°53'0 0.0
2016-Feb-01 09:30N 49°10' W 123°53'0 0.2
2016-Feb-01 08:33N 49°10' W 123°53'1616.2
2016-Feb-01 07:33N 49°08' W 123°29'1615.6
2016-Feb-01 06:33N 49°00' W 123°08'1212.0
2016-Feb-01 05:33N 49°04' W 123°25'1818.0
2016-Feb-01 04:33N 49°13' W 123°49'1 1.4
2016-Feb-01 03:34N 49°13' W 123°51'  
Track history (hours):
 
Tides and Currents Weather Stations Pressure Air Temp Water Temp Dewpoint Dewpoint Depression Visibility Wind Speed Wind Dir Waves Ship Positions

Coastal Inspiration

Last reported at 2016-Feb-11 03:33 UTC. Time now 2016-Feb-11 04:22 UTC.
Position N 49°13' W 123°52'.

Length 160 m; draft 6 m.

Type: Passenger vessel. MMSI: 316011408.

Date/timePositionNaut miles runAvg speedWind from/ knotsBaromVisibWave heightAir tempDewpointWater temp
2016-Feb-11 03:33N 49°13' W 123°52'1212.5
2016-Feb-11 02:33N 49°09' W 123°34'1918.6
2016-Feb-11 01:33N 49°00' W 123°08'1918.8
2016-Feb-11 00:33N 49°09' W 123°34'0 0.2
2016-Feb-10 23:33N 49°09' W 123°33'0 0.2
2016-Feb-10 22:34N 49°09' W 123°34'0 0.2
2016-Feb-10 21:33N 49°09' W 123°33'0 0.2
2016-Feb-10 20:33N 49°09' W 123°34'8 7.5
2016-Feb-10 19:33N 49°04' W 123°25'8 7.5
2016-Feb-10 18:33N 49°09' W 123°34'0 0.0
2016-Feb-10 17:33N 49°09' W 123°34'8 7.6
2016-Feb-10 16:33N 49°04' W 123°25'0 0.0
2016-Feb-10 15:34N 49°04' W 123°25'0 0.0
2016-Feb-10 14:34N 49°04' W 123°25'0 0.0
2016-Feb-10 13:34N 49°04' W 123°25'0 0.0
2016-Feb-10 12:33N 49°04' W 123°25'0 0.0
2016-Feb-10 11:34N 49°04' W 123°25'0 0.0
2016-Feb-10 10:34N 49°04' W 123°25'0 0.0
2016-Feb-10 09:34N 49°04' W 123°25'0 0.0
2016-Feb-10 08:34N 49°04' W 123°25'0 0.0
2016-Feb-10 07:33N 49°04' W 123°25'0 0.0
2016-Feb-10 06:34N 49°04' W 123°25'0 0.0
2016-Feb-10 05:34N 49°04' W 123°25'0 0.0
2016-Feb-10 04:34N 49°04' W 123°25'0 0.0
2016-Feb-10 03:34N 49°04' W 123°25'0 0.0
2016-Feb-10 02:34N 49°04' W 123°25'0 0.0
2016-Feb-10 01:34N 49°04' W 123°25'0 0.0
2016-Feb-10 00:34N 49°04' W 123°25'0 0.0
2016-Feb-09 23:34N 49°04' W 123°25'0 0.0
2016-Feb-09 22:34N 49°04' W 123°25'0 0.0
2016-Feb-09 21:34N 49°04' W 123°25'0 0.0
2016-Feb-09 20:33N 49°04' W 123°25'0 0.1
2016-Feb-09 19:34N 49°04' W 123°25'0 0.1
2016-Feb-09 18:34N 49°04' W 123°25'0 0.0
2016-Feb-09 17:33N 49°04' W 123°25'0 0.0
2016-Feb-09 16:34N 49°04' W 123°25'0 0.0
2016-Feb-09 15:34N 49°04' W 123°25'0 0.0
2016-Feb-09 14:34N 49°04' W 123°25'0 0.0
2016-Feb-09 13:34N 49°04' W 123°25'0 0.0
2016-Feb-09 12:33N 49°04' W 123°25'0 0.0
2016-Feb-09 11:33N 49°04' W 123°25'0 0.0
2016-Feb-09 10:34N 49°04' W 123°25'0 0.0
2016-Feb-09 09:34N 49°04' W 123°25'0 0.0
2016-Feb-09 08:33N 49°04' W 123°25'0 0.0
2016-Feb-09 07:34N 49°04' W 123°25'0 0.0
2016-Feb-09 06:34N 49°04' W 123°25'0 0.0
2016-Feb-09 05:34N 49°04' W 123°25'1818.1
2016-Feb-09 04:33N 49°13' W 123°49'3 2.6
2016-Feb-09 03:33N 49°12' W 123°53'1818.2
2016-Feb-09 02:33N 49°06' W 123°26'1313.5
2016-Feb-09 01:34N 49°00' W 123°08'1212.4
2016-Feb-09 00:33N 49°04' W 123°26'1818.4
2016-Feb-08 23:33N 49°13' W 123°51'2 2.3
2016-Feb-08 22:33N 49°12' W 123°53'1817.7
2016-Feb-08 21:33N 49°06' W 123°27'1414.0
2016-Feb-08 20:33N 49°00' W 123°08'1211.6
2016-Feb-08 19:33N 49°03' W 123°25'1918.7
2016-Feb-08 18:33N 49°13' W 123°49'3 2.6
2016-Feb-08 17:33N 49°12' W 123°53'1818.1
2016-Feb-08 16:33N 49°06' W 123°27'1413.8
2016-Feb-08 15:33N 49°00' W 123°08'1111.1
2016-Feb-08 14:33N 49°03' W 123°24'1918.9
2016-Feb-08 13:33N 49°13' W 123°49'4 3.7
2016-Feb-08 12:22N 49°10' W 123°53'0 0.0
2016-Feb-08 11:28N 49°10' W 123°53'0 0.0
2016-Feb-08 10:31N 49°10' W 123°53'0 0.0
2016-Feb-08 09:21N 49°10' W 123°53'0 0.1
2016-Feb-08 08:33N 49°10' W 123°53'1616.1
2016-Feb-08 07:33N 49°07' W 123°29'1615.5
2016-Feb-08 06:33N 49°00' W 123°08'1111.3
2016-Feb-08 05:34N 49°03' W 123°24'1918.8
2016-Feb-08 04:33N 49°13' W 123°49'2 1.9
2016-Feb-08 03:34N 49°13' W 123°52'1918.5
2016-Feb-08 02:34N 49°07' W 123°25'1312.9
2016-Feb-08 01:33N 49°00' W 123°08'1111.5
2016-Feb-08 00:33N 49°03' W 123°25'1818.3
2016-Feb-07 23:33N 49°13' W 123°48'3 3.3
2016-Feb-07 22:34N 49°12' W 123°53'1817.8
2016-Feb-07 21:34N 49°07' W 123°27'1414.1
2016-Feb-07 20:33N 49°00' W 123°08'1211.6
2016-Feb-07 19:33N 49°03' W 123°25'1918.6
2016-Feb-07 18:33N 49°13' W 123°49'4 4.3
2016-Feb-07 17:33N 49°10' W 123°53'0 0.0
2016-Feb-07 16:33N 49°10' W 123°53'0 0.0
2016-Feb-07 15:33N 49°10' W 123°53'0 0.0
2016-Feb-07 14:34N 49°10' W 123°53'0 0.0
2016-Feb-07 13:34N 49°10' W 123°53'0 0.1
2016-Feb-07 12:34N 49°10' W 123°53'0 0.1
2016-Feb-07 11:33N 49°10' W 123°53'0 0.0
2016-Feb-07 10:34N 49°10' W 123°53'0 0.0
2016-Feb-07 09:33N 49°10' W 123°53'0 0.0
2016-Feb-07 08:31N 49°10' W 123°53'0 0.0
2016-Feb-07 07:28N 49°10' W 123°53'0 0.0
2016-Feb-07 06:30N 49°10' W 123°53'0 0.0
2016-Feb-07 05:33N 49°10' W 123°53'0 0.0
2016-Feb-07 04:33N 49°10' W 123°53'0 0.0
2016-Feb-07 03:33N 49°10' W 123°53'0 0.1
2016-Feb-07 02:31N 49°10' W 123°53'0 0.1
2016-Feb-07 01:33N 49°10' W 123°53'9 8.6
2016-Feb-07 00:33N 49°11' W 123°40'1919.3
2016-Feb-06 23:33N 49°01' W 123°16'2 2.4
2016-Feb-06 22:34N 49°00' W 123°12'1918.6
2016-Feb-06 21:33N 49°09' W 123°37'1111.0
2016-Feb-06 20:33N 49°10' W 123°53'10 9.5
2016-Feb-06 19:33N 49°11' W 123°39'1918.7
2016-Feb-06 18:33N 49°01' W 123°15'2 2.0
2016-Feb-06 17:33N 49°00' W 123°12'1918.6
2016-Feb-06 16:33N 49°09' W 123°37'1110.8
2016-Feb-06 15:33N 49°10' W 123°53'0 0.0
2016-Feb-06 14:25N 49°10' W 123°53'0 0.0
2016-Feb-06 13:31N 49°10' W 123°53'0 0.0
2016-Feb-06 11:21N 49°10' W 123°53'0 0.0
2016-Feb-06 10:29N 49°10' W 123°53'0 0.4
2016-Feb-06 09:33N 49°10' W 123°53'1817.8
2016-Feb-06 08:33N 49°06' W 123°27'1413.7
2016-Feb-06 07:34N 49°00' W 123°08'1918.5
2016-Feb-06 06:33N 49°08' W 123°34'1312.5
2016-Feb-06 05:31N 49°10' W 123°53'0 0.0
2016-Feb-06 04:33N 49°10' W 123°53'4 4.2
2016-Feb-06 03:33N 49°13' W 123°50'2019.6
2016-Feb-06 02:34N 49°05' W 123°22'1010.4
2016-Feb-06 01:33N 49°00' W 123°08'1212.1
2016-Feb-06 00:33N 49°04' W 123°25'1818.5
2016-Feb-05 23:34N 49°13' W 123°50'2 2.5
2016-Feb-05 22:34N 49°12' W 123°53'1818.1
2016-Feb-05 21:33N 49°06' W 123°26'1413.7
2016-Feb-05 20:33N 49°00' W 123°08'1111.5
2016-Feb-05 19:33N 49°03' W 123°25'1918.7
2016-Feb-05 18:33N 49°13' W 123°49'3 2.7
2016-Feb-05 17:33N 49°12' W 123°53'1818.0
2016-Feb-05 16:33N 49°07' W 123°27'1413.9
2016-Feb-05 15:33N 49°00' W 123°08'1211.6
2016-Feb-05 14:33N 49°03' W 123°25'1918.7
2016-Feb-05 13:33N 49°13' W 123°50'4 4.2
2016-Feb-05 12:33N 49°10' W 123°53'0 0.0
2016-Feb-05 11:33N 49°10' W 123°53'0 0.0
2016-Feb-05 10:32N 49°10' W 123°53'0 0.0
2016-Feb-05 09:33N 49°10' W 123°53'0 0.0
2016-Feb-05 08:34N 49°10' W 123°53'1615.7
2016-Feb-05 07:33N 49°07' W 123°30'1616.0
2016-Feb-05 06:34N 49°00' W 123°08'1212.2
2016-Feb-05 05:34N 49°04' W 123°26'1919.1
2016-Feb-05 04:33N 49°12' W 123°52'0 0.5
2016-Feb-05 03:33N 49°12' W 123°53'1918.7
2016-Feb-05 02:33N 49°06' W 123°26'1313.1
2016-Feb-05 01:33N 49°00' W 123°08'1212.2
2016-Feb-05 00:33N 49°04' W 123°26'1817.8
2016-Feb-04 23:34N 49°13' W 123°49'3 2.5
2016-Feb-04 22:33N 49°12' W 123°53'1818.1
2016-Feb-04 21:33N 49°07' W 123°26'1413.6
2016-Feb-04 20:33N 49°00' W 123°08'1211.9
2016-Feb-04 19:33N 49°04' W 123°25'1818.1
2016-Feb-04 18:33N 49°13' W 123°49'2 1.8
2016-Feb-04 17:34N 49°13' W 123°52'1818.1
2016-Feb-04 16:34N 49°06' W 123°26'1313.1
2016-Feb-04 15:33N 49°00' W 123°08'1212.3
2016-Feb-04 14:34N 49°04' W 123°26'1817.9
2016-Feb-04 13:34N 49°13' W 123°49'4 4.2
2016-Feb-04 12:33N 49°10' W 123°53'0 0.0
2016-Feb-04 11:30N 49°10' W 123°53'0 0.0
2016-Feb-04 10:29N 49°10' W 123°53'0 0.0
2016-Feb-04 09:32N 49°10' W 123°53'1 0.7
2016-Feb-04 08:33N 49°10' W 123°53'1717.1
2016-Feb-04 07:33N 49°08' W 123°27'1514.9
2016-Feb-04 06:33N 49°00' W 123°08'1211.8
2016-Feb-04 05:33N 49°04' W 123°25'1818.1
2016-Feb-04 04:34N 49°13' W 123°49'2 2.5
2016-Feb-04 03:34N 49°12' W 123°52'1818.4
2016-Feb-04 02:34N 49°06' W 123°26'1313.0
2016-Feb-04 01:33N 49°00' W 123°08'1313.1
2016-Feb-04 00:34N 49°04' W 123°27'1717.4
2016-Feb-03 23:33N 49°13' W 123°50'1 1.1
2016-Feb-03 22:34N 49°13' W 123°52'1919.0
2016-Feb-03 21:34N 49°05' W 123°25'1212.1
2016-Feb-03 20:33N 49°00' W 123°08'1212.4
2016-Feb-03 19:34N 49°04' W 123°26'1818.2
2016-Feb-03 18:33N 49°13' W 123°50'1 1.1
2016-Feb-03 17:32N 49°13' W 123°52'1818.0
2016-Feb-03 16:33N 49°06' W 123°26'1413.6
2016-Feb-03 15:34N 49°00' W 123°08'1312.7
2016-Feb-03 14:33N 49°04' W 123°26'1818.1
2016-Feb-03 13:33N 49°13' W 123°51'3 3.4
2016-Feb-03 12:33N 49°10' W 123°53'0 0.0
2016-Feb-03 11:33N 49°10' W 123°53'0 0.0
2016-Feb-03 10:33N 49°10' W 123°53'0 0.0
2016-Feb-03 09:33N 49°10' W 123°53'0 0.4
2016-Feb-03 08:33N 49°10' W 123°53'1716.4
2016-Feb-03 07:33N 49°07' W 123°28'1515.2
2016-Feb-03 06:34N 49°00' W 123°08'1211.7
2016-Feb-03 05:33N 49°04' W 123°25'1818.1
2016-Feb-03 04:33N 49°13' W 123°49'3 2.5
2016-Feb-03 03:33N 49°12' W 123°53'1919.4
2016-Feb-03 02:33N 49°06' W 123°25'1212.3
2016-Feb-03 01:33N 49°00' W 123°08'1717.3
2016-Feb-03 00:33N 49°07' W 123°32'1413.5
2016-Feb-02 23:30N 49°10' W 123°53'8 8.0
2016-Feb-02 22:33N 49°12' W 123°42'2121.2
2016-Feb-02 21:33N 49°01' W 123°14'4 4.2
2016-Feb-02 20:33N 49°00' W 123°08'1211.9
2016-Feb-02 19:33N 49°04' W 123°25'1818.4
2016-Feb-02 18:33N 49°13' W 123°50'2 1.6
2016-Feb-02 17:34N 49°12' W 123°52'1818.4
2016-Feb-02 16:34N 49°06' W 123°25'1312.9
2016-Feb-02 15:34N 49°00' W 123°08'1212.4
2016-Feb-02 14:33N 49°04' W 123°26'1818.0
2016-Feb-02 13:33N 49°13' W 123°50'4 3.2
2016-Feb-02 12:19N 49°10' W 123°53'0 0.0
2016-Feb-02 10:24N 49°10' W 123°53'0 0.0
2016-Feb-02 09:12N 49°10' W 123°53'0 0.7
2016-Feb-02 08:33N 49°10' W 123°53'1716.5
2016-Feb-02 07:33N 49°07' W 123°28'1515.2
2016-Feb-02 06:33N 49°00' W 123°08'1212.0
2016-Feb-02 05:33N 49°04' W 123°25'1818.1
2016-Feb-02 04:34N 49°13' W 123°49'2 2.3
2016-Feb-02 03:33N 49°13' W 123°52'1817.8
2016-Feb-02 02:33N 49°06' W 123°27'1413.8
2016-Feb-02 01:33N 49°00' W 123°08'1312.7
2016-Feb-02 00:33N 49°04' W 123°26'1717.4
2016-Feb-01 23:33N 49°13' W 123°50'2 2.2
2016-Feb-01 22:33N 49°12' W 123°53'1818.1
2016-Feb-01 21:33N 49°06' W 123°27'1413.6
2016-Feb-01 20:33N 49°00' W 123°08'1211.8
2016-Feb-01 19:33N 49°04' W 123°25'1818.3
2016-Feb-01 18:34N 49°13' W 123°49'2 2.2
2016-Feb-01 17:33N 49°12' W 123°52'1817.8
2016-Feb-01 16:33N 49°07' W 123°26'1413.6
2016-Feb-01 15:33N 49°00' W 123°08'1212.0
2016-Feb-01 14:33N 49°04' W 123°25'1818.2
2016-Feb-01 13:33N 49°13' W 123°49'4 4.1
2016-Feb-01 12:31N 49°10' W 123°53'0 0.0
2016-Feb-01 11:31N 49°10' W 123°53'0 0.0
2016-Feb-01 10:33N 49°10' W 123°53'0 0.0
2016-Feb-01 09:30N 49°10' W 123°53'0 0.2
2016-Feb-01 08:33N 49°10' W 123°53'1616.2
2016-Feb-01 07:33N 49°08' W 123°29'1615.6
2016-Feb-01 06:33N 49°00' W 123°08'1212.0
2016-Feb-01 05:33N 49°04' W 123°25'1818.0
2016-Feb-01 04:33N 49°13' W 123°49'1 1.4
2016-Feb-01 03:34N 49°13' W 123°51'  

Dump ship's entire track history